Time;durP1;ratioP1;P1;durP2;ratioP2;P2;SDS_P1;SDS_P2;PMS_P1;PMS_P2;Temp;Humidity;BMP_temperature;BMP_pressure;BME280_temperature;BME280_humidity;BME280_pressure;Samples;Min_cycle;Max_cycle;Signal;HPM_P1;HPM_P2
2023/05/25 00:00:17;;;;;;;;;;;18.60;87.40;;;;;;6217597;23;20299;-96
2023/05/25 00:02:45;;;;;;;;;;;18.60;88.40;;;;;;6217100;23;19911;-96
2023/05/25 00:05:11;;;;;;;;;;;18.60;89.10;;;;;;6217404;23;19904;-96
2023/05/25 00:07:37;;;;;;;;;;;18.40;89.10;;;;;;6217385;23;19904;-96
2023/05/25 00:10:04;;;;;;;;;;;18.40;89.20;;;;;;6217596;23;19932;-96
2023/05/25 00:12:29;;;;;;;;;;;18.40;89.80;;;;;;6215090;23;19991;-96
2023/05/25 00:14:55;;;;;;;;;;;18.40;90.40;;;;;;6217164;23;20267;-96
2023/05/25 00:17:20;;;;;;;;;;;18.40;90.60;;;;;;6216430;23;19954;-96
2023/05/25 00:19:46;;;;;;;;;;;18.40;90.10;;;;;;6215047;23;19904;-96
2023/05/25 00:22:11;;;;;;;;;;;18.30;89.70;;;;;;6214942;23;19911;-96
2023/05/25 00:24:38;;;;;;;;;;;18.30;89.40;;;;;;6216962;23;19904;-96
2023/05/25 00:27:03;;;;;;;;;;;18.30;88.50;;;;;;6215042;23;19904;-96
2023/05/25 00:29:29;;;;;;;;;;;18.30;88.60;;;;;;6216893;23;19908;-96
2023/05/25 00:31:55;;;;;;;;;;;18.30;89.20;;;;;;6216641;23;20242;-95
2023/05/25 00:34:21;;;;;;;;;;;18.30;89.00;;;;;;6216780;23;19915;-96
2023/05/25 00:36:49;;;;;;;;;;;18.30;88.20;;;;;;6215136;23;19904;-96
2023/05/25 00:39:15;;;;;;;;;;;18.40;88.20;;;;;;6217388;23;19979;-96
2023/05/25 00:41:45;;;;;;;;;;;18.40;88.20;;;;;;6214976;23;19904;-96
2023/05/25 00:44:11;;;;;;;;;;;18.40;88.30;;;;;;6216666;23;19904;-96
2023/05/25 00:46:37;;;;;;;;;;;18.40;88.20;;;;;;6215101;23;19904;-96
2023/05/25 00:49:03;;;;;;;;;;;18.50;87.80;;;;;;6216908;23;19904;-96
2023/05/25 00:51:31;;;;;;;;;;;18.50;87.60;;;;;;6215154;23;19911;-96
2023/05/25 00:53:57;;;;;;;;;;;18.60;87.40;;;;;;6216845;23;19912;-96
2023/05/25 00:56:25;;;;;;;;;;;18.60;87.40;;;;;;6216906;23;19927;-95
2023/05/25 00:58:52;;;;;;;;;;;18.60;87.30;;;;;;6216783;23;19903;-96
2023/05/25 01:01:19;;;;;;;;;;;18.80;86.80;;;;;;6214992;23;19904;-96
2023/05/25 01:03:52;;;;;;;;;;;18.80;87.00;;;;;;6217312;23;20307;-96
2023/05/25 01:06:18;;;;;;;;;;;18.80;86.70;;;;;;6216970;23;19904;-96
2023/05/25 01:08:46;;;;;;;;;;;18.80;86.60;;;;;;6215369;23;19926;-96
2023/05/25 01:11:13;;;;;;;;;;;18.80;86.90;;;;;;6217068;23;19985;-96
2023/05/25 01:13:39;;;;;;;;;;;18.80;86.70;;;;;;6216794;23;19908;-96
2023/05/25 01:16:05;;;;;;;;;;;18.80;86.80;;;;;;6214883;23;19908;-96
2023/05/25 01:18:32;;;;;;;;;;;18.60;87.10;;;;;;6214706;23;19983;-96
2023/05/25 01:21:11;;;;;;;;;;;18.50;87.50;;;;;;6216889;23;19982;-96
2023/05/25 01:23:39;;;;;;;;;;;18.50;87.80;;;;;;6214946;23;19961;-96
2023/05/25 01:26:08;;;;;;;;;;;18.40;88.00;;;;;;6216754;23;19904;-95
2023/05/25 01:28:39;;;;;;;;;;;18.50;87.60;;;;;;6214990;23;19904;-96
2023/05/25 01:31:06;;;;;;;;;;;18.50;87.50;;;;;;6216934;23;20348;-96
2023/05/25 01:33:32;;;;;;;;;;;18.50;87.20;;;;;;6214923;23;19950;-96
2023/05/25 01:35:59;;;;;;;;;;;18.50;86.90;;;;;;6215227;23;19904;-96
2023/05/25 01:38:25;;;;;;;;;;;18.60;86.40;;;;;;6215180;23;19904;-96
2023/05/25 01:40:50;;;;;;;;;;;18.60;86.40;;;;;;6215195;23;20233;-96
2023/05/25 01:43:16;;;;;;;;;;;18.70;86.00;;;;;;6215160;23;20204;-96
2023/05/25 01:45:41;;;;;;;;;;;18.80;85.70;;;;;;6215607;23;19911;-96
2023/05/25 01:48:07;;;;;;;;;;;18.80;85.70;;;;;;6215620;23;20230;-96
2023/05/25 01:50:35;;;;;;;;;;;18.70;86.20;;;;;;6215780;23;20281;-96
2023/05/25 01:53:33;;;;;;;;;;;18.70;86.50;;;;;;6215536;23;19958;-95
2023/05/25 01:56:01;;;;;;;;;;;18.70;86.60;;;;;;6134760;23;20314;-96
2023/05/25 01:58:28;;;;;;;;;;;18.70;86.70;;;;;;6215481;23;19978;-96
2023/05/25 02:00:55;;;;;;;;;;;18.70;86.80;;;;;;6215692;23;19927;-96
2023/05/25 02:03:20;;;;;;;;;;;18.70;86.50;;;;;;6218085;23;19904;-95
2023/05/25 02:05:46;;;;;;;;;;;18.60;86.40;;;;;;6215932;23;19904;-96
2023/05/25 02:08:12;;;;;;;;;;;18.50;86.80;;;;;;6215110;23;19907;-96
2023/05/25 02:10:37;;;;;;;;;;;18.40;87.20;;;;;;6215614;23;19904;-96
2023/05/25 02:13:03;;;;;;;;;;;18.30;87.70;;;;;;6218511;23;20058;-96
2023/05/25 02:15:32;;;;;;;;;;;18.30;87.80;;;;;;6218216;23;19904;-96
2023/05/25 02:17:58;;;;;;;;;;;18.30;88.10;;;;;;6217965;23;19916;-96
2023/05/25 02:20:24;;;;;;;;;;;18.20;88.40;;;;;;6218274;23;19982;-96
2023/05/25 02:22:50;;;;;;;;;;;18.10;88.70;;;;;;6217818;23;19935;-95
2023/05/25 02:25:16;;;;;;;;;;;18.10;89.00;;;;;;6218535;23;20230;-96
2023/05/25 02:27:41;;;;;;;;;;;18.00;89.20;;;;;;6216119;23;20329;-96
2023/05/25 02:30:07;;;;;;;;;;;17.90;89.60;;;;;;6218109;23;19904;-96
2023/05/25 02:32:34;;;;;;;;;;;18.00;89.70;;;;;;6217794;23;20289;-95
2023/05/25 02:34:59;;;;;;;;;;;18.10;89.80;;;;;;6216218;23;19928;-96
2023/05/25 02:37:25;;;;;;;;;;;18.10;89.90;;;;;;6217982;23;20326;-96
2023/05/25 02:39:51;;;;;;;;;;;18.10;90.40;;;;;;6216115;23;20288;-96
2023/05/25 02:42:16;;;;;;;;;;;18.00;90.90;;;;;;6217566;23;19904;-96
2023/05/25 02:44:47;;;;;;;;;;;18.00;91.40;;;;;;6218299;23;19907;-96
2023/05/25 02:47:16;;;;;;;;;;;18.00;91.80;;;;;;6217981;23;19911;-95
2023/05/25 02:49:42;;;;;;;;;;;18.00;91.40;;;;;;6218009;23;19958;-96
2023/05/25 02:52:08;;;;;;;;;;;18.00;91.70;;;;;;6217475;23;19904;-96
2023/05/25 02:54:33;;;;;;;;;;;18.10;91.30;;;;;;6215854;23;20331;-96
2023/05/25 02:57:01;;;;;;;;;;;18.10;90.70;;;;;;6217820;23;19987;-96
2023/05/25 02:59:27;;;;;;;;;;;18.10;90.40;;;;;;6217418;23;19904;-96
2023/05/25 03:01:52;;;;;;;;;;;18.10;90.00;;;;;;6217730;23;19982;-96
2023/05/25 03:04:18;;;;;;;;;;;18.10;89.80;;;;;;6215845;23;20298;-96
2023/05/25 03:06:44;;;;;;;;;;;18.20;89.60;;;;;;6217745;23;20384;-96
2023/05/25 03:09:09;;;;;;;;;;;18.30;89.40;;;;;;6217397;23;19974;-96
2023/05/25 03:11:35;;;;;;;;;;;18.30;89.30;;;;;;6215762;23;19904;-96
2023/05/25 03:14:00;;;;;;;;;;;18.30;88.80;;;;;;6215588;23;19908;-96
2023/05/25 03:16:26;;;;;;;;;;;18.30;88.70;;;;;;6217596;23;20338;-96
2023/05/25 03:18:51;;;;;;;;;;;18.30;88.70;;;;;;6217778;23;19903;-96
2023/05/25 03:21:17;;;;;;;;;;;18.40;88.20;;;;;;6215820;23;19911;-96
2023/05/25 03:23:43;;;;;;;;;;;18.40;88.40;;;;;;6217877;23;19910;-96
2023/05/25 03:26:08;;;;;;;;;;;18.40;88.70;;;;;;6217492;23;19927;-96
2023/05/25 03:28:34;;;;;;;;;;;18.40;88.60;;;;;;6217878;23;19947;-96
2023/05/25 03:31:00;;;;;;;;;;;18.40;88.30;;;;;;6215667;23;19908;-96
2023/05/25 03:33:25;;;;;;;;;;;18.30;88.20;;;;;;6215347;23;19908;-96
2023/05/25 03:35:51;;;;;;;;;;;18.30;88.30;;;;;;6217713;23;19911;-96
2023/05/25 03:38:16;;;;;;;;;;;18.30;88.50;;;;;;6217007;23;19911;-96
2023/05/25 03:40:42;;;;;;;;;;;18.30;89.40;;;;;;6217750;23;19911;-96
2023/05/25 03:43:07;;;;;;;;;;;18.20;90.40;;;;;;6215264;23;19911;-96
2023/05/25 03:45:33;;;;;;;;;;;18.20;90.40;;;;;;6217248;23;19904;-96
2023/05/25 03:47:59;;;;;;;;;;;18.20;90.50;;;;;;6216842;23;19903;-96
2023/05/25 03:50:24;;;;;;;;;;;18.20;90.00;;;;;;6217656;23;19904;-96
2023/05/25 03:52:50;;;;;;;;;;;18.10;89.80;;;;;;6217143;23;19915;-96
2023/05/25 03:55:15;;;;;;;;;;;18.10;90.20;;;;;;6217273;23;20242;-96
2023/05/25 03:57:41;;;;;;;;;;;18.10;90.70;;;;;;6217177;23;19978;-96
2023/05/25 04:00:08;;;;;;;;;;;18.10;90.40;;;;;;6215262;23;20284;-96
2023/05/25 04:02:33;;;;;;;;;;;17.90;90.60;;;;;;6215261;23;19926;-96
2023/05/25 04:04:59;;;;;;;;;;;17.80;91.10;;;;;;6215240;23;20323;-96
2023/05/25 04:07:26;;;;;;;;;;;17.80;91.40;;;;;;6215210;23;20237;-96
2023/05/25 04:09:52;;;;;;;;;;;17.80;91.50;;;;;;6217094;23;19928;-96
2023/05/25 04:12:17;;;;;;;;;;;17.80;91.80;;;;;;6215232;23;19911;-96
2023/05/25 04:14:43;;;;;;;;;;;17.80;92.00;;;;;;6215043;23;20058;-96
2023/05/25 04:17:08;;;;;;;;;;;17.70;92.20;;;;;;6216706;23;19916;-96
2023/05/25 04:19:34;;;;;;;;;;;17.70;92.50;;;;;;6217336;23;19910;-96
2023/05/25 04:22:00;;;;;;;;;;;17.60;92.60;;;;;;6216686;23;19930;-95
2023/05/25 04:24:26;;;;;;;;;;;17.60;92.60;;;;;;6217339;23;19904;-96
2023/05/25 04:26:52;;;;;;;;;;;17.60;92.50;;;;;;6216937;23;19908;-96
2023/05/25 04:29:17;;;;;;;;;;;17.60;92.40;;;;;;6216694;23;19904;-96
2023/05/25 04:31:44;;;;;;;;;;;17.60;92.50;;;;;;6216570;23;19904;-96
2023/05/25 04:34:10;;;;;;;;;;;17.60;92.50;;;;;;6214581;23;19912;-96
2023/05/25 04:36:37;;;;;;;;;;;17.70;92.40;;;;;;6216461;23;20212;-96
2023/05/25 04:39:03;;;;;;;;;;;17.80;91.80;;;;;;6214917;23;19903;-96
2023/05/25 04:41:29;;;;;;;;;;;17.80;91.50;;;;;;6216720;23;19910;-96
2023/05/25 04:43:54;;;;;;;;;;;17.80;91.30;;;;;;6214822;23;19904;-96
2023/05/25 04:46:20;;;;;;;;;;;17.90;91.10;;;;;;6216757;23;20270;-96
2023/05/25 04:48:45;;;;;;;;;;;17.90;90.60;;;;;;6214799;23;20281;-96
2023/05/25 04:51:11;;;;;;;;;;;17.90;90.50;;;;;;6216816;23;19903;-96
2023/05/25 04:53:37;;;;;;;;;;;17.80;90.30;;;;;;6216261;23;19991;-96
2023/05/25 04:56:03;;;;;;;;;;;17.90;90.10;;;;;;6216731;23;19999;-95
2023/05/25 04:58:28;;;;;;;;;;;17.90;89.90;;;;;;6215992;23;20281;-95
2023/05/25 05:00:57;;;;;;;;;;;18.10;89.80;;;;;;6216471;23;19954;-96
2023/05/25 05:03:22;;;;;;;;;;;18.20;89.20;;;;;;6216498;23;19915;-96
2023/05/25 05:05:48;;;;;;;;;;;18.20;88.60;;;;;;6219770;23;20234;-96
2023/05/25 05:08:14;;;;;;;;;;;18.20;88.40;;;;;;6216201;23;19904;-96
2023/05/25 05:10:39;;;;;;;;;;;18.20;88.20;;;;;;6216770;23;19912;-96
2023/05/25 05:13:05;;;;;;;;;;;18.30;88.10;;;;;;6216166;23;19915;-96
2023/05/25 05:15:31;;;;;;;;;;;18.40;88.60;;;;;;6216488;23;20246;-96
2023/05/25 05:17:56;;;;;;;;;;;18.40;87.10;;;;;;6214257;23;19935;-96
2023/05/25 05:20:22;;;;;;;;;;;18.40;86.40;;;;;;6216237;23;19904;-95
2023/05/25 05:22:47;;;;;;;;;;;18.40;86.50;;;;;;6214709;23;20265;-96
2023/05/25 05:25:13;;;;;;;;;;;18.40;86.70;;;;;;6216215;23;19911;-96
2023/05/25 05:27:39;;;;;;;;;;;18.50;86.90;;;;;;6216036;23;20309;-96
2023/05/25 05:30:05;;;;;;;;;;;18.60;87.60;;;;;;6214458;23;19903;-96
2023/05/25 05:32:30;;;;;;;;;;;18.80;88.00;;;;;;6215765;23;20318;-95
2023/05/25 05:34:56;;;;;;;;;;;18.70;86.60;;;;;;6214503;23;19908;-96
2023/05/25 05:37:21;;;;;;;;;;;18.80;86.90;;;;;;6214547;23;19904;-96
2023/05/25 05:39:47;;;;;;;;;;;18.70;86.70;;;;;;6214696;23;19987;-96
2023/05/25 05:42:12;;;;;;;;;;;18.70;86.40;;;;;;6214563;23;19904;-95
2023/05/25 05:44:38;;;;;;;;;;;18.60;86.70;;;;;;6216585;23;19904;-96
2023/05/25 05:47:04;;;;;;;;;;;18.60;87.50;;;;;;6216164;23;19911;-96
2023/05/25 05:49:29;;;;;;;;;;;18.60;87.80;;;;;;6218641;23;19904;-96
2023/05/25 05:51:55;;;;;;;;;;;18.70;88.00;;;;;;6218015;23;19955;-96
2023/05/25 05:54:21;;;;;;;;;;;18.80;87.90;;;;;;6216427;23;19914;-96
2023/05/25 05:56:46;;;;;;;;;;;18.80;87.60;;;;;;6218172;23;20330;-96
2023/05/25 05:59:12;;;;;;;;;;;18.80;87.40;;;;;;6217919;23;20223;-96
2023/05/25 06:01:37;;;;;;;;;;;18.90;87.70;;;;;;6218396;23;19904;-96
2023/05/25 06:04:06;;;;;;;;;;;18.90;88.40;;;;;;6217868;23;20238;-95
2023/05/25 06:06:33;;;;;;;;;;;18.90;88.60;;;;;;6231332;23;19911;-96
2023/05/25 06:09:00;;;;;;;;;;;19.00;88.70;;;;;;6227948;23;19910;-96
2023/05/25 06:11:28;;;;;;;;;;;19.00;89.00;;;;;;6240134;23;19888;-96
2023/05/25 06:13:55;;;;;;;;;;;19.10;88.90;;;;;;6241707;23;19916;-96
2023/05/25 06:16:24;;;;;;;;;;;19.10;88.20;;;;;;6243552;23;19887;-96
2023/05/25 06:18:57;;;;;;;;;;;19.10;87.50;;;;;;6243523;23;19919;-96
2023/05/25 06:21:25;;;;;;;;;;;19.20;87.10;;;;;;6242112;23;19911;-96
2023/05/25 06:24:01;;;;;;;;;;;19.30;87.50;;;;;;6239666;23;19915;-96
2023/05/25 06:26:30;;;;;;;;;;;19.30;87.70;;;;;;6240604;23;19904;-96
2023/05/25 06:28:57;;;;;;;;;;;19.40;87.70;;;;;;6239044;23;19927;-96
2023/05/25 06:31:27;;;;;;;;;;;19.50;87.50;;;;;;6240930;23;19888;-96
2023/05/25 06:33:56;;;;;;;;;;;19.60;87.00;;;;;;6239281;23;19908;-96
2023/05/25 06:36:22;;;;;;;;;;;19.60;87.30;;;;;;6238057;22;19904;-96
2023/05/25 06:38:51;;;;;;;;;;;19.40;87.90;;;;;;6240588;23;19888;-96
2023/05/25 06:41:18;;;;;;;;;;;19.20;88.20;;;;;;6241748;23;19904;-96
2023/05/25 06:43:45;;;;;;;;;;;18.90;88.60;;;;;;6241185;23;19904;-96
2023/05/25 06:46:16;;;;;;;;;;;18.80;88.30;;;;;;6239805;23;19908;-96
2023/05/25 06:48:42;;;;;;;;;;;18.80;89.00;;;;;;6239687;23;19904;-96
2023/05/25 06:51:08;;;;;;;;;;;18.70;88.90;;;;;;6240622;23;19895;-96
2023/05/25 06:53:42;;;;;;;;;;;18.70;88.40;;;;;;6242528;23;19960;-96
2023/05/25 06:56:09;;;;;;;;;;;18.70;87.40;;;;;;6215084;23;20378;-96
2023/05/25 06:58:35;;;;;;;;;;;18.80;86.90;;;;;;6229624;23;19908;-96
2023/05/25 07:01:01;;;;;;;;;;;18.80;88.00;;;;;;6223398;23;19908;-96
2023/05/25 07:03:26;;;;;;;;;;;18.80;87.80;;;;;;6232157;23;19970;-96
2023/05/25 07:05:52;;;;;;;;;;;18.80;89.40;;;;;;6226365;23;20402;-96
2023/05/25 07:08:18;;;;;;;;;;;18.60;90.10;;;;;;6222364;23;19904;-96
2023/05/25 07:10:46;;;;;;;;;;;18.40;89.70;;;;;;6227161;23;19904;-96
2023/05/25 07:13:12;;;;;;;;;;;18.30;88.80;;;;;;6234529;23;19998;-96
2023/05/25 07:15:38;;;;;;;;;;;18.10;88.20;;;;;;6232370;23;19904;-96
2023/05/25 07:18:07;;;;;;;;;;;18.10;87.80;;;;;;6180104;23;19921;-96
2023/05/25 07:20:33;;;;;;;;;;;18.00;88.40;;;;;;6172937;23;19910;-96
2023/05/25 07:22:59;;;;;;;;;;;18.00;88.90;;;;;;6172775;23;19916;-96
2023/05/25 07:25:28;;;;;;;;;;;18.00;88.60;;;;;;6173320;23;19928;-95
2023/05/25 07:27:55;;;;;;;;;;;18.00;87.80;;;;;;6176451;23;19928;-95
2023/05/25 07:30:25;;;;;;;;;;;18.00;87.70;;;;;;6179301;23;19956;-96
2023/05/25 07:32:56;;;;;;;;;;;18.10;88.00;;;;;;6178826;23;19943;-96
2023/05/25 07:35:34;;;;;;;;;;;18.20;87.70;;;;;;6242106;23;19908;-96
2023/05/25 07:38:06;;;;;;;;;;;18.20;86.30;;;;;;6241228;23;19904;-96
2023/05/25 07:40:36;;;;;;;;;;;18.20;86.70;;;;;;6240048;23;19904;-96
2023/05/25 07:43:02;;;;;;;;;;;18.10;87.10;;;;;;6240579;23;19904;-96
2023/05/25 07:45:30;;;;;;;;;;;18.10;86.80;;;;;;6209519;23;19904;-96
2023/05/25 07:48:05;;;;;;;;;;;18.00;86.90;;;;;;6209008;23;19931;-96
2023/05/25 07:50:36;;;;;;;;;;;18.00;86.70;;;;;;6186416;23;19909;-96
2023/05/25 07:53:06;;;;;;;;;;;18.00;87.10;;;;;;6210861;23;19909;-96
2023/05/25 07:55:32;;;;;;;;;;;18.00;87.30;;;;;;6210147;23;19904;-96
2023/05/25 07:58:06;;;;;;;;;;;18.10;87.30;;;;;;6209200;23;19910;-96
2023/05/25 08:00:43;;;;;;;;;;;18.20;87.40;;;;;;6208484;23;19944;-96
2023/05/25 08:03:20;;;;;;;;;;;18.30;87.10;;;;;;6209230;23;19889;-96
2023/05/25 08:05:46;;;;;;;;;;;18.40;87.20;;;;;;6208701;23;19904;-96
2023/05/25 08:08:17;;;;;;;;;;;18.60;87.30;;;;;;6208867;23;19905;-96
2023/05/25 08:10:45;;;;;;;;;;;18.70;87.40;;;;;;6209441;23;19910;-96
2023/05/25 08:13:12;;;;;;;;;;;18.70;87.00;;;;;;6209383;23;19931;-96
2023/05/25 08:15:41;;;;;;;;;;;18.80;87.40;;;;;;6208700;23;19904;-96
2023/05/25 08:18:09;;;;;;;;;;;18.80;85.70;;;;;;6211013;23;19911;-96
2023/05/25 08:20:45;;;;;;;;;;;18.80;86.10;;;;;;6208825;23;19911;-96
2023/05/25 08:23:11;;;;;;;;;;;18.90;85.80;;;;;;6208002;23;19896;-96
2023/05/25 08:25:40;;;;;;;;;;;19.10;83.70;;;;;;6207325;23;19912;-96
2023/05/25 08:28:10;;;;;;;;;;;19.20;84.80;;;;;;6208379;23;19904;-96
2023/05/25 08:30:36;;;;;;;;;;;19.30;84.90;;;;;;6178630;23;19905;-96
2023/05/25 08:33:09;;;;;;;;;;;19.20;85.20;;;;;;6178606;23;19938;-96
2023/05/25 08:35:41;;;;;;;;;;;19.20;84.90;;;;;;6180817;23;19899;-96
2023/05/25 08:38:08;;;;;;;;;;;19.20;85.20;;;;;;6181577;23;19961;-96
2023/05/25 08:40:45;;;;;;;;;;;19.30;85.30;;;;;;6182174;23;19905;-96
2023/05/25 08:43:22;;;;;;;;;;;19.40;84.70;;;;;;6177316;23;19901;-96
2023/05/25 08:45:53;;;;;;;;;;;19.30;82.70;;;;;;6179929;23;19912;-96
2023/05/25 08:48:21;;;;;;;;;;;19.40;81.80;;;;;;6177787;23;19904;-96
2023/05/25 08:50:48;;;;;;;;;;;19.50;84.90;;;;;;6178986;23;19905;-96
2023/05/25 08:53:15;;;;;;;;;;;19.40;84.60;;;;;;6178352;23;19913;-96
2023/05/25 08:55:42;;;;;;;;;;;19.40;84.40;;;;;;6174881;23;19928;-96
2023/05/25 08:58:19;;;;;;;;;;;19.50;85.00;;;;;;6176565;23;19952;-96
2023/05/25 09:00:52;;;;;;;;;;;19.50;83.60;;;;;;6176809;23;19904;-96
2023/05/25 09:03:18;;;;;;;;;;;19.50;82.70;;;;;;6174726;23;19931;-96
2023/05/25 09:05:45;;;;;;;;;;;19.40;81.90;;;;;;6177692;23;19912;-96
2023/05/25 09:08:15;;;;;;;;;;;19.30;83.10;;;;;;6178239;23;19907;-96
2023/05/25 09:10:42;;;;;;;;;;;19.40;82.80;;;;;;6178727;23;19909;-97
2023/05/25 09:13:11;;;;;;;;;;;19.50;83.00;;;;;;6178213;23;19916;-96
2023/05/25 09:15:42;;;;;;;;;;;19.60;80.70;;;;;;6180018;23;20239;-96
2023/05/25 09:18:11;;;;;;;;;;;19.50;79.20;;;;;;6176658;23;19959;-96
2023/05/25 09:20:38;;;;;;;;;;;19.50;79.60;;;;;;6178138;23;19928;-96
2023/05/25 09:23:08;;;;;;;;;;;19.50;80.10;;;;;;6178439;23;20331;-96
2023/05/25 09:25:37;;;;;;;;;;;19.50;80.90;;;;;;6176744;23;19927;-96
2023/05/25 09:28:07;;;;;;;;;;;19.60;81.30;;;;;;6178369;23;19928;-96
2023/05/25 09:30:34;;;;;;;;;;;19.70;81.50;;;;;;6175850;23;19936;-96
2023/05/25 09:33:20;;;;;;;;;;;19.80;81.40;;;;;;6176530;23;19917;-96
2023/05/25 09:35:51;;;;;;;;;;;20.00;80.70;;;;;;6176844;23;19928;-96
2023/05/25 09:38:18;;;;;;;;;;;20.10;80.10;;;;;;6177829;23;19954;-96
2023/05/25 09:40:44;;;;;;;;;;;20.30;80.10;;;;;;6177594;23;19904;-96
2023/05/25 09:43:11;;;;;;;;;;;20.40;79.30;;;;;;6178778;23;19916;-96
2023/05/25 09:45:37;;;;;;;;;;;20.50;78.20;;;;;;6178758;23;19904;-96
2023/05/25 09:48:04;;;;;;;;;;;20.70;78.10;;;;;;6178045;23;19912;-96
2023/05/25 09:50:34;;;;;;;;;;;20.70;77.00;;;;;;6178915;23;19909;-96
2023/05/25 09:53:00;;;;;;;;;;;20.80;77.20;;;;;;6179440;23;20027;-96
2023/05/25 09:55:28;;;;;;;;;;;20.80;77.30;;;;;;6180275;23;19928;-96
2023/05/25 09:57:54;;;;;;;;;;;20.90;76.00;;;;;;6182758;23;19904;-96
2023/05/25 10:00:25;;;;;;;;;;;21.00;76.50;;;;;;6179585;23;19948;-96
2023/05/25 10:02:52;;;;;;;;;;;21.10;76.30;;;;;;6176190;23;19909;-96
2023/05/25 10:05:21;;;;;;;;;;;21.20;76.40;;;;;;6177907;23;19904;-96
2023/05/25 10:07:49;;;;;;;;;;;21.40;76.80;;;;;;6177684;23;19904;-96
2023/05/25 10:10:28;;;;;;;;;;;21.60;76.70;;;;;;6179218;23;19911;-96
2023/05/25 10:12:55;;;;;;;;;;;21.70;76.80;;;;;;6178026;23;19905;-96
2023/05/25 10:15:21;;;;;;;;;;;21.80;76.60;;;;;;6178590;23;19915;-96
2023/05/25 10:17:51;;;;;;;;;;;22.00;75.90;;;;;;6179895;23;19912;-96
2023/05/25 10:20:21;;;;;;;;;;;22.20;75.50;;;;;;6179566;23;19905;-96
2023/05/25 10:22:49;;;;;;;;;;;22.40;74.20;;;;;;6181173;23;19905;-96
2023/05/25 10:25:21;;;;;;;;;;;22.60;72.80;;;;;;6179839;23;19904;-96
2023/05/25 10:27:56;;;;;;;;;;;22.70;71.30;;;;;;6180157;23;19904;-96
2023/05/25 10:30:23;;;;;;;;;;;22.70;72.50;;;;;;6179037;23;19931;-96
2023/05/25 10:32:50;;;;;;;;;;;22.80;72.70;;;;;;6178767;23;19923;-96
2023/05/25 10:35:17;;;;;;;;;;;23.00;72.20;;;;;;6179497;23;19905;-96
2023/05/25 10:37:44;;;;;;;;;;;23.20;71.10;;;;;;6179728;23;19952;-96
2023/05/25 10:40:11;;;;;;;;;;;23.30;69.40;;;;;;6180117;23;19905;-96
2023/05/25 10:42:47;;;;;;;;;;;23.50;69.70;;;;;;6182074;23;19909;-96
2023/05/25 10:45:13;;;;;;;;;;;23.60;68.30;;;;;;6180240;23;19936;-96
2023/05/25 10:47:41;;;;;;;;;;;23.70;68.90;;;;;;6181526;23;19928;-96
2023/05/25 10:50:18;;;;;;;;;;;23.90;69.00;;;;;;6180598;23;19912;-96
2023/05/25 10:52:47;;;;;;;;;;;24.00;66.80;;;;;;6179946;23;19905;-96
2023/05/25 10:55:19;;;;;;;;;;;24.10;64.90;;;;;;6181185;23;19932;-96
2023/05/25 10:57:46;;;;;;;;;;;24.30;65.90;;;;;;6181346;23;19905;-96
2023/05/25 11:00:13;;;;;;;;;;;24.50;65.00;;;;;;6180964;23;19900;-96
2023/05/25 11:03:00;;;;;;;;;;;24.60;64.80;;;;;;6181725;23;19912;-96
2023/05/25 11:05:37;;;;;;;;;;;24.70;63.70;;;;;;6181769;23;19896;-96
2023/05/25 11:08:05;;;;;;;;;;;24.90;62.50;;;;;;6181141;23;19905;-96
2023/05/25 11:10:55;;;;;;;;;;;25.10;62.30;;;;;;6181982;23;19912;-96
2023/05/25 11:13:30;;;;;;;;;;;25.30;61.10;;;;;;6180154;23;19965;-96
2023/05/25 11:16:20;;;;;;;;;;;25.30;59.50;;;;;;6180696;23;19905;-96
2023/05/25 11:18:53;;;;;;;;;;;25.50;59.50;;;;;;6178811;23;19905;-96
2023/05/25 11:21:31;;;;;;;;;;;25.50;59.20;;;;;;6179721;23;19901;-96
2023/05/25 11:24:13;;;;;;;;;;;25.60;60.00;;;;;;6178656;23;19905;-96
2023/05/25 11:26:53;;;;;;;;;;;25.70;56.60;;;;;;6179115;23;19888;-96
2023/05/25 11:29:30;;;;;;;;;;;25.80;56.30;;;;;;6179840;23;19905;-96
2023/05/25 11:32:01;;;;;;;;;;;25.70;57.20;;;;;;6179546;23;19904;-96
2023/05/25 11:34:29;;;;;;;;;;;25.80;58.20;;;;;;6179770;23;19920;-96
2023/05/25 11:36:57;;;;;;;;;;;25.90;56.60;;;;;;6180105;23;19948;-96
2023/05/25 11:39:28;;;;;;;;;;;26.00;56.30;;;;;;6175834;23;19909;-96
2023/05/25 11:42:01;;;;;;;;;;;26.20;59.60;;;;;;6177935;23;19889;-96
2023/05/25 11:44:35;;;;;;;;;;;26.30;56.00;;;;;;6176986;23;19931;-96
2023/05/25 11:47:08;;;;;;;;;;;26.30;53.50;;;;;;6178864;23;19911;-97
2023/05/25 11:49:37;;;;;;;;;;;26.40;54.20;;;;;;6178337;23;19912;-96
2023/05/25 11:52:09;;;;;;;;;;;26.40;54.10;;;;;;6177940;23;19905;-96
2023/05/25 11:54:36;;;;;;;;;;;26.50;52.70;;;;;;6180302;23;19892;-96
2023/05/25 11:57:03;;;;;;;;;;;26.70;55.10;;;;;;6181324;23;19927;-96
2023/05/25 11:59:30;;;;;;;;;;;26.90;55.00;;;;;;6180909;23;19904;-96
2023/05/25 12:01:58;;;;;;;;;;;27.10;51.30;;;;;;6181108;23;19893;-96
2023/05/25 12:04:29;;;;;;;;;;;27.40;54.20;;;;;;6179995;23;19909;-96
2023/05/25 12:07:07;;;;;;;;;;;27.60;48.80;;;;;;6180147;23;19914;-96
2023/05/25 12:09:35;;;;;;;;;;;27.70;51.10;;;;;;6178590;23;19889;-96
2023/05/25 12:12:08;;;;;;;;;;;27.70;49.40;;;;;;6175461;23;19932;-96
2023/05/25 12:14:45;;;;;;;;;;;27.90;50.40;;;;;;6176347;23;19915;-96
2023/05/25 12:17:12;;;;;;;;;;;28.10;48.50;;;;;;6178785;23;19916;-96
2023/05/25 12:19:38;;;;;;;;;;;28.10;49.20;;;;;;6179793;23;19905;-96
2023/05/25 12:22:08;;;;;;;;;;;28.40;49.90;;;;;;6178503;23;19905;-96
2023/05/25 12:24:33;;;;;;;;;;;28.60;47.20;;;;;;6176103;23;19909;-96
2023/05/25 12:27:05;;;;;;;;;;;28.50;46.40;;;;;;6181511;23;19924;-96
2023/05/25 12:29:31;;;;;;;;;;;28.70;46.50;;;;;;6207319;23;19942;-96
2023/05/25 12:32:06;;;;;;;;;;;28.60;48.40;;;;;;6232561;23;19911;-96
2023/05/25 12:34:34;;;;;;;;;;;28.80;48.10;;;;;;6198392;23;19919;-96
2023/05/25 12:37:00;;;;;;;;;;;28.90;46.60;;;;;;6175382;23;20026;-96
2023/05/25 12:39:28;;;;;;;;;;;28.90;45.60;;;;;;6193086;23;19904;-96
2023/05/25 12:41:55;;;;;;;;;;;29.10;45.20;;;;;;6188514;23;19955;-96
2023/05/25 12:44:21;;;;;;;;;;;29.20;45.20;;;;;;6192901;23;19909;-96
2023/05/25 12:46:50;;;;;;;;;;;29.40;46.80;;;;;;6202829;23;19897;-96
2023/05/25 12:49:24;;;;;;;;;;;29.60;44.30;;;;;;6202342;23;19909;-96
2023/05/25 12:51:49;;;;;;;;;;;29.70;45.50;;;;;;6192098;23;19904;-96
2023/05/25 13:22:37;;;;;;;;;;;34.40;36.50;;;;;;6119864;23;19924;-96
2023/05/25 13:25:04;;;;;;;;;;;34.30;34.20;;;;;;6126157;23;19897;-96
2023/05/25 13:27:39;;;;;;;;;;;33.70;35.10;;;;;;6152720;23;19889;-96
2023/05/25 13:30:10;;;;;;;;;;;33.50;35.40;;;;;;6150649;23;19901;-96
2023/05/25 13:32:42;;;;;;;;;;;33.20;38.80;;;;;;6127655;23;19909;-96
2023/05/25 13:35:18;;;;;;;;;;;33.60;39.00;;;;;;6151933;23;19901;-96
2023/05/25 13:37:50;;;;;;;;;;;33.70;38.50;;;;;;6151850;23;19901;-96
2023/05/25 13:40:21;;;;;;;;;;;33.80;37.40;;;;;;6150785;23;19905;-96
2023/05/25 13:42:51;;;;;;;;;;;34.10;35.40;;;;;;6123221;23;19901;-96
2023/05/25 13:45:20;;;;;;;;;;;34.20;36.10;;;;;;6175844;23;19905;-96
2023/05/25 13:47:48;;;;;;;;;;;33.80;36.30;;;;;;6143473;23;19956;-96
2023/05/25 13:50:14;;;;;;;;;;;33.00;36.40;;;;;;6085235;23;19945;-96
2023/05/25 14:05:37;;;;;;;;;;;34.20;36.10;;;;;;6183763;23;19920;-96
2023/05/25 14:08:03;;;;;;;;;;;33.70;35.50;;;;;;6224341;23;19946;-96
2023/05/25 14:10:32;;;;;;;;;;;34.10;34.90;;;;;;6230471;23;19935;-96
2023/05/25 14:12:58;;;;;;;;;;;34.20;33.80;;;;;;6226361;23;19948;-96
2023/05/25 14:15:24;;;;;;;;;;;33.90;33.70;;;;;;6228122;23;19958;-96
2023/05/25 14:17:49;;;;;;;;;;;34.20;35.60;;;;;;6227171;23;19927;-96
2023/05/25 14:20:21;;;;;;;;;;;34.50;34.80;;;;;;6226656;23;19908;-96
2023/05/25 14:22:46;;;;;;;;;;;35.20;34.00;;;;;;6225331;23;19904;-96
2023/05/25 14:31:02;;;;;;;;;;;35.70;32.10;;;;;;6165044;23;19928;-96
2023/05/25 14:38:41;;;;;;;;;;;34.90;33.40;;;;;;6146124;23;19920;-96
2023/05/25 14:41:06;;;;;;;;;;;33.90;33.80;;;;;;6184865;23;20303;-96
2023/05/25 14:43:33;;;;;;;;;;;33.50;33.90;;;;;;6141763;23;19925;-96
2023/05/25 14:46:02;;;;;;;;;;;33.00;34.40;;;;;;6155299;23;19904;-96
2023/05/25 14:48:27;;;;;;;;;;;33.70;34.50;;;;;;6129562;23;20415;-96
2023/05/25 14:50:54;;;;;;;;;;;33.90;35.20;;;;;;6120496;23;19905;-96
2023/05/25 14:53:27;;;;;;;;;;;34.20;34.70;;;;;;6150537;23;19957;-96
2023/05/25 14:55:54;;;;;;;;;;;34.60;34.40;;;;;;6126707;23;19908;-96
2023/05/25 14:58:20;;;;;;;;;;;34.70;34.00;;;;;;6150793;23;19912;-96
2023/05/25 15:00:47;;;;;;;;;;;34.10;32.40;;;;;;6124858;23;19912;-96
2023/05/25 15:03:17;;;;;;;;;;;33.60;34.50;;;;;;6124852;23;19991;-96
2023/05/25 15:05:50;;;;;;;;;;;33.90;36.70;;;;;;6126751;23;19932;-96
2023/05/25 15:08:16;;;;;;;;;;;34.50;33.30;;;;;;6152869;23;19921;-96
2023/05/25 15:10:42;;;;;;;;;;;34.50;35.40;;;;;;6125525;23;19928;-96
2023/05/25 15:13:13;;;;;;;;;;;34.80;34.50;;;;;;6149873;23;19905;-96